sensor_id;sensor_type;location;lat;lon;timestamp;pressure;altitude;pressure_sealevel;temperature;humidity
57904;BME280;43720;47.462;19.030;2023-09-12T03:59:17;100186.50;;;16.69;100.00
57904;BME280;43720;47.462;19.030;2023-09-12T04:02:19;100182.16;;;16.64;100.00
57904;BME280;43720;47.462;19.030;2023-09-12T04:05:22;100194.66;;;16.53;100.00
57904;BME280;43720;47.462;19.030;2023-09-12T04:08:24;100190.34;;;16.46;100.00
57904;BME280;43720;47.462;19.030;2023-09-12T04:11:27;100195.50;;;16.55;100.00
57904;BME280;43720;47.462;19.030;2023-09-12T04:14:49;100184.94;;;16.55;100.00
57904;BME280;43720;47.462;19.030;2023-09-12T04:17:52;100192.94;;;16.48;100.00
57904;BME280;43720;47.462;19.030;2023-09-12T04:20:55;100188.50;;;16.51;100.00
57904;BME280;43720;47.462;19.030;2023-09-12T04:23:59;100191.22;;;16.47;100.00
57904;BME280;43720;47.462;19.030;2023-09-12T04:27:01;100197.38;;;16.44;100.00
57904;BME280;43720;47.462;19.030;2023-09-12T04:30:06;100191.19;;;16.48;100.00
57904;BME280;43720;47.462;19.030;2023-09-12T04:33:09;100190.28;;;16.49;100.00
57904;BME280;43720;47.462;19.030;2023-09-12T04:36:11;100190.31;;;16.48;100.00
57904;BME280;43720;47.462;19.030;2023-09-12T04:39:13;100193.78;;;16.51;100.00
57904;BME280;43720;47.462;19.030;2023-09-12T04:42:17;100191.94;;;16.56;100.00
57904;BME280;43720;47.462;19.030;2023-09-12T04:45:19;100197.28;;;16.52;100.00
57904;BME280;43720;47.462;19.030;2023-09-12T04:48:22;100206.13;;;16.51;100.00
57904;BME280;43720;47.462;19.030;2023-09-12T04:51:24;100206.84;;;16.60;100.00
57904;BME280;43720;47.462;19.030;2023-09-12T04:54:27;100205.09;;;16.62;100.00
57904;BME280;43720;47.462;19.030;2023-09-12T04:57:30;100207.75;;;16.59;100.00
57904;BME280;43720;47.462;19.030;2023-09-12T05:00:33;100214.75;;;16.65;100.00
57904;BME280;43720;47.462;19.030;2023-09-12T05:03:36;100217.38;;;16.65;100.00
57904;BME280;43720;47.462;19.030;2023-09-12T05:06:39;100217.28;;;16.73;100.00
57904;BME280;43720;47.462;19.030;2023-09-12T05:09:42;100219.81;;;16.82;100.00
57904;BME280;43720;47.462;19.030;2023-09-12T05:12:45;100222.41;;;16.83;100.00
57904;BME280;43720;47.462;19.030;2023-09-12T05:15:47;100217.19;;;16.82;100.00
57904;BME280;43720;47.462;19.030;2023-09-12T05:23:51;100223.97;;;17.00;100.00
57904;BME280;43720;47.462;19.030;2023-09-12T05:26:53;100223.06;;;17.01;100.00
57904;BME280;43720;47.462;19.030;2023-09-12T05:29:56;100213.16;;;17.15;100.00
57904;BME280;43720;47.462;19.030;2023-09-12T05:32:59;100222.50;;;17.39;100.00
57904;BME280;43720;47.462;19.030;2023-09-12T05:36:01;100216.28;;;17.42;100.00
57904;BME280;43720;47.462;19.030;2023-09-12T05:39:05;100219.69;;;17.48;100.00
57904;BME280;43720;47.462;19.030;2023-09-12T05:42:07;100229.34;;;17.51;100.00
57904;BME280;43720;47.462;19.030;2023-09-12T05:45:10;100235.50;;;17.51;100.00
57904;BME280;43720;47.462;19.030;2023-09-12T05:48:13;100228.38;;;17.58;100.00
57904;BME280;43720;47.462;19.030;2023-09-12T05:51:15;100242.31;;;17.65;100.00
57904;BME280;43720;47.462;19.030;2023-09-12T05:54:18;100240.41;;;17.76;100.00
57904;BME280;43720;47.462;19.030;2023-09-12T05:57:21;100241.97;;;17.88;100.00
57904;BME280;43720;47.462;19.030;2023-09-12T06:00:25;100241.78;;;17.98;100.00
57904;BME280;43720;47.462;19.030;2023-09-12T06:03:29;100238.00;;;18.13;100.00
57904;BME280;43720;47.462;19.030;2023-09-12T06:06:33;100238.66;;;18.23;100.00
57904;BME280;43720;47.462;19.030;2023-09-12T06:09:56;100240.25;;;18.33;100.00
57904;BME280;43720;47.462;19.030;2023-09-12T06:13:12;100240.94;;;18.43;100.00
57904;BME280;43720;47.462;19.030;2023-09-12T06:16:15;100246.00;;;18.55;98.40
57904;BME280;43720;47.462;19.030;2023-09-12T06:19:17;100240.59;;;18.60;98.77
57904;BME280;43720;47.462;19.030;2023-09-12T06:22:22;100239.56;;;18.67;99.00
57904;BME280;43720;47.462;19.030;2023-09-12T06:25:27;100238.47;;;18.78;98.11
57904;BME280;43720;47.462;19.030;2023-09-12T06:28:31;100248.81;;;18.91;97.69
57904;BME280;43720;47.462;19.030;2023-09-12T06:31:34;100246.75;;;19.03;96.26
57904;BME280;43720;47.462;19.030;2023-09-12T06:34:37;100251.00;;;19.11;96.28
57904;BME280;43720;47.462;19.030;2023-09-12T06:37:41;100248.06;;;19.23;96.39
57904;BME280;43720;47.462;19.030;2023-09-12T06:40:43;100254.88;;;19.35;96.24
57904;BME280;43720;47.462;19.030;2023-09-12T06:43:46;100253.69;;;19.48;95.32
57904;BME280;43720;47.462;19.030;2023-09-12T06:46:48;100248.97;;;19.59;93.02
57904;BME280;43720;47.462;19.030;2023-09-12T06:49:51;100246.87;;;19.73;92.44
57904;BME280;43720;47.462;19.030;2023-09-12T06:52:57;100250.94;;;19.88;92.62
57904;BME280;43720;47.462;19.030;2023-09-12T06:56:00;100249.78;;;19.98;92.77
57904;BME280;43720;47.462;19.030;2023-09-12T06:59:02;100244.16;;;20.09;91.94
57904;BME280;43720;47.462;19.030;2023-09-12T07:02:05;100246.53;;;20.20;90.85
57904;BME280;43720;47.462;19.030;2023-09-12T07:05:07;100247.97;;;20.33;89.28
57904;BME280;43720;47.462;19.030;2023-09-12T07:08:10;100248.44;;;20.49;85.84
57904;BME280;43720;47.462;19.030;2023-09-12T07:11:12;100244.50;;;20.62;84.25
57904;BME280;43720;47.462;19.030;2023-09-12T07:14:15;100245.91;;;20.75;83.73
57904;BME280;43720;47.462;19.030;2023-09-12T07:17:17;100244.75;;;20.84;84.14
57904;BME280;43720;47.462;19.030;2023-09-12T07:20:19;100255.94;;;20.95;84.32
57904;BME280;43720;47.462;19.030;2023-09-12T07:23:22;100252.91;;;21.08;84.12
57904;BME280;43720;47.462;19.030;2023-09-12T07:26:25;100250.87;;;21.16;83.91
57904;BME280;43720;47.462;19.030;2023-09-12T07:29:29;100249.66;;;21.26;82.74
57904;BME280;43720;47.462;19.030;2023-09-12T07:32:31;100258.72;;;21.48;81.04
57904;BME280;43720;47.462;19.030;2023-09-12T07:35:34;100256.69;;;21.57;79.93
57904;BME280;43720;47.462;19.030;2023-09-12T07:38:36;100265.31;;;21.65;82.87
57904;BME280;43720;47.462;19.030;2023-09-12T07:41:46;100257.84;;;21.76;83.28
57904;BME280;43720;47.462;19.030;2023-09-12T07:44:52;100260.87;;;21.90;81.24
57904;BME280;43720;47.462;19.030;2023-09-12T07:47:54;100257.91;;;22.00;81.99
57904;BME280;43720;47.462;19.030;2023-09-12T07:50:57;100263.00;;;22.06;80.14
57904;BME280;43720;47.462;19.030;2023-09-12T07:53:59;100262.78;;;22.13;79.05
57904;BME280;43720;47.462;19.030;2023-09-12T07:57:01;100251.75;;;22.24;80.05
57904;BME280;43720;47.462;19.030;2023-09-12T08:00:05;100255.69;;;22.37;76.31
57904;BME280;43720;47.462;19.030;2023-09-12T08:03:12;100246.69;;;22.41;75.62
57904;BME280;43720;47.462;19.030;2023-09-12T08:06:19;100245.53;;;22.49;74.17
57904;BME280;43720;47.462;19.030;2023-09-12T08:09:22;100239.91;;;22.56;73.57
57904;BME280;43720;47.462;19.030;2023-09-12T08:12:27;100244.94;;;22.65;74.81
57904;BME280;43720;47.462;19.030;2023-09-12T08:15:29;100241.84;;;22.76;74.51
57904;BME280;43720;47.462;19.030;2023-09-12T08:18:32;100248.56;;;22.86;73.99
57904;BME280;43720;47.462;19.030;2023-09-12T08:21:35;100246.38;;;22.98;71.52
57904;BME280;43720;47.462;19.030;2023-09-12T08:24:38;100245.03;;;23.09;69.80
57904;BME280;43720;47.462;19.030;2023-09-12T08:27:41;100255.47;;;23.15;70.55
57904;BME280;43720;47.462;19.030;2023-09-12T08:30:46;100249.66;;;23.28;69.11
57904;BME280;43720;47.462;19.030;2023-09-12T08:33:49;100254.59;;;23.37;68.22
57904;BME280;43720;47.462;19.030;2023-09-12T08:36:52;100250.69;;;23.46;67.48
57904;BME280;43720;47.462;19.030;2023-09-12T08:39:54;100248.41;;;23.58;66.62
57904;BME280;43720;47.462;19.030;2023-09-12T08:43:01;100249.88;;;23.65;66.32
57904;BME280;43720;47.462;19.030;2023-09-12T08:46:03;100245.84;;;23.77;67.30
57904;BME280;43720;47.462;19.030;2023-09-12T08:49:07;100246.25;;;23.88;65.95
57904;BME280;43720;47.462;19.030;2023-09-12T08:52:11;100244.41;;;23.90;66.30
57904;BME280;43720;47.462;19.030;2023-09-12T08:55:14;100239.47;;;24.02;66.33
57904;BME280;43720;47.462;19.030;2023-09-12T08:58:16;100237.25;;;24.11;64.70
57904;BME280;43720;47.462;19.030;2023-09-12T09:01:19;100231.66;;;24.17;65.04
57904;BME280;43720;47.462;19.030;2023-09-12T09:04:22;100242.94;;;24.24;65.43
57904;BME280;43720;47.462;19.030;2023-09-12T09:07:26;100241.66;;;24.33;64.31
57904;BME280;43720;47.462;19.030;2023-09-12T09:10:29;100242.09;;;24.44;63.39
57904;BME280;43720;47.462;19.030;2023-09-12T09:13:51;100233.28;;;24.61;61.96
57904;BME280;43720;47.462;19.030;2023-09-12T09:16:54;100235.25;;;24.76;61.57
57904;BME280;43720;47.462;19.030;2023-09-12T09:19:57;100228.19;;;24.94;59.88
57904;BME280;43720;47.462;19.030;2023-09-12T09:23:04;100227.84;;;25.02;58.78
57904;BME280;43720;47.462;19.030;2023-09-12T09:26:07;100223.87;;;25.10;57.72
57904;BME280;43720;47.462;19.030;2023-09-12T09:29:13;100225.00;;;25.24;58.28
57904;BME280;43720;47.462;19.030;2023-09-12T09:32:17;100223.84;;;25.29;57.57
57904;BME280;43720;47.462;19.030;2023-09-12T09:35:20;100227.59;;;25.44;56.33
57904;BME280;43720;47.462;19.030;2023-09-12T09:38:26;100231.28;;;25.59;54.28
57904;BME280;43720;47.462;19.030;2023-09-12T09:41:29;100227.37;;;25.66;54.61
57904;BME280;43720;47.462;19.030;2023-09-12T09:44:32;100223.22;;;25.78;55.21
57904;BME280;43720;47.462;19.030;2023-09-12T09:47:34;100226.06;;;25.92;53.25
57904;BME280;43720;47.462;19.030;2023-09-12T09:50:37;100228.50;;;25.97;54.04
57904;BME280;43720;47.462;19.030;2023-09-12T09:53:39;100221.34;;;25.97;53.59
57904;BME280;43720;47.462;19.030;2023-09-12T09:56:49;100220.53;;;26.13;53.09
57904;BME280;43720;47.462;19.030;2023-09-12T09:59:54;100213.81;;;26.21;53.10
57904;BME280;43720;47.462;19.030;2023-09-12T10:02:57;100209.09;;;26.26;51.47
57904;BME280;43720;47.462;19.030;2023-09-12T10:06:04;100212.66;;;26.27;52.44
57904;BME280;43720;47.462;19.030;2023-09-12T10:09:10;100208.28;;;26.42;51.67
57904;BME280;43720;47.462;19.030;2023-09-12T10:12:13;100210.34;;;26.54;51.66
57904;BME280;43720;47.462;19.030;2023-09-12T10:15:19;100204.03;;;26.71;50.07
57904;BME280;43720;47.462;19.030;2023-09-12T10:18:22;100208.81;;;26.81;49.89
57904;BME280;43720;47.462;19.030;2023-09-12T10:21:31;100203.03;;;26.89;48.96
57904;BME280;43720;47.462;19.030;2023-09-12T10:24:35;100200.16;;;26.92;48.55
57904;BME280;43720;47.462;19.030;2023-09-12T10:27:38;100209.19;;;27.07;47.93
57904;BME280;43720;47.462;19.030;2023-09-12T10:30:41;100205.03;;;27.17;48.24
57904;BME280;43720;47.462;19.030;2023-09-12T10:33:46;100200.88;;;27.27;47.94
57904;BME280;43720;47.462;19.030;2023-09-12T10:36:49;100199.75;;;27.31;47.10
57904;BME280;43720;47.462;19.030;2023-09-12T10:39:53;100189.25;;;27.43;45.84
57904;BME280;43720;47.462;19.030;2023-09-12T10:42:57;100187.16;;;27.48;45.05
57904;BME280;43720;47.462;19.030;2023-09-12T10:46:05;100178.81;;;27.52;44.85
57904;BME280;43720;47.462;19.030;2023-09-12T10:49:11;100184.53;;;27.62;44.01
57904;BME280;43720;47.462;19.030;2023-09-12T10:52:25;100180.34;;;27.72;43.53
57904;BME280;43720;47.462;19.030;2023-09-12T10:55:28;100183.50;;;27.65;44.04
57904;BME280;43720;47.462;19.030;2023-09-12T10:58:31;100179.03;;;27.79;44.12
57904;BME280;43720;47.462;19.030;2023-09-12T11:01:34;100178.28;;;27.77;44.99
57904;BME280;43720;47.462;19.030;2023-09-12T11:04:36;100184.62;;;27.91;44.26
57904;BME280;43720;47.462;19.030;2023-09-12T11:10:42;100172.06;;;28.06;42.62
57904;BME280;43720;47.462;19.030;2023-09-12T11:14:02;100174.88;;;28.04;43.84
57904;BME280;43720;47.462;19.030;2023-09-12T11:20:15;100157.00;;;28.17;41.99
57904;BME280;43720;47.462;19.030;2023-09-12T11:23:18;100159.03;;;28.28;41.86
57904;BME280;43720;47.462;19.030;2023-09-12T11:26:21;100153.38;;;28.33;41.78
57904;BME280;43720;47.462;19.030;2023-09-12T11:29:39;100149.75;;;28.48;42.18
57904;BME280;43720;47.462;19.030;2023-09-12T11:32:45;100150.31;;;28.53;41.82
57904;BME280;43720;47.462;19.030;2023-09-12T11:35:52;100151.84;;;28.57;41.50
57904;BME280;43720;47.462;19.030;2023-09-12T11:39:02;100148.75;;;28.63;40.69
57904;BME280;43720;47.462;19.030;2023-09-12T11:42:05;100147.66;;;28.80;41.10
57904;BME280;43720;47.462;19.030;2023-09-12T11:45:11;100144.22;;;28.78;39.39
57904;BME280;43720;47.462;19.030;2023-09-12T11:48:13;100143.13;;;28.81;39.82
57904;BME280;43720;47.462;19.030;2023-09-12T11:51:18;100139.88;;;28.90;40.34
57904;BME280;43720;47.462;19.030;2023-09-12T11:54:25;100141.13;;;28.98;40.35
57904;BME280;43720;47.462;19.030;2023-09-12T11:57:29;100138.31;;;29.00;38.87
57904;BME280;43720;47.462;19.030;2023-09-12T12:00:32;100124.25;;;29.09;38.74
57904;BME280;43720;47.462;19.030;2023-09-12T12:03:35;100126.53;;;29.15;38.90
57904;BME280;43720;47.462;19.030;2023-09-12T12:06:37;100128.03;;;29.19;38.08
57904;BME280;43720;47.462;19.030;2023-09-12T12:09:40;100126.25;;;29.20;39.01
57904;BME280;43720;47.462;19.030;2023-09-12T12:12:52;100123.44;;;29.21;38.90
57904;BME280;43720;47.462;19.030;2023-09-12T12:15:55;100121.81;;;29.19;38.36
57904;BME280;43720;47.462;19.030;2023-09-12T12:18:58;100124.59;;;29.17;38.19
57904;BME280;43720;47.462;19.030;2023-09-12T12:22:01;100128.28;;;29.16;38.83
57904;BME280;43720;47.462;19.030;2023-09-12T12:25:08;100122.56;;;29.21;38.43
57904;BME280;43720;47.462;19.030;2023-09-12T12:28:11;100114.69;;;29.18;37.55
57904;BME280;43720;47.462;19.030;2023-09-12T12:31:13;100113.06;;;29.15;37.53
57904;BME280;43720;47.462;19.030;2023-09-12T12:34:21;100102.66;;;29.23;36.35
57904;BME280;43720;47.462;19.030;2023-09-12T12:37:43;100102.88;;;29.20;37.17
57904;BME280;43720;47.462;19.030;2023-09-12T12:40:52;100097.81;;;29.29;39.45
57904;BME280;43720;47.462;19.030;2023-09-12T12:43:57;100092.00;;;29.35;38.84
57904;BME280;43720;47.462;19.030;2023-09-12T12:47:04;100092.63;;;29.25;37.60
57904;BME280;43720;47.462;19.030;2023-09-12T12:50:17;100087.78;;;29.18;37.85
57904;BME280;43720;47.462;19.030;2023-09-12T12:53:42;100077.66;;;29.21;38.10
57904;BME280;43720;47.462;19.030;2023-09-12T12:56:54;100081.66;;;29.16;38.42
57904;BME280;43720;47.462;19.030;2023-09-12T12:59:58;100084.03;;;29.33;37.71
57904;BME280;43720;47.462;19.030;2023-09-12T13:03:00;100082.13;;;29.35;38.80
57904;BME280;43720;47.462;19.030;2023-09-12T13:06:03;100078.72;;;29.19;36.87
57904;BME280;43720;47.462;19.030;2023-09-12T13:09:05;100082.50;;;29.16;37.27
57904;BME280;43720;47.462;19.030;2023-09-12T13:12:09;100093.34;;;29.15;38.10
57904;BME280;43720;47.462;19.030;2023-09-12T13:15:12;100079.19;;;29.25;36.45
57904;BME280;43720;47.462;19.030;2023-09-12T13:18:14;100076.34;;;29.14;36.44
57904;BME280;43720;47.462;19.030;2023-09-12T13:21:16;100082.59;;;29.15;36.97
57904;BME280;43720;47.462;19.030;2023-09-12T13:24:19;100073.56;;;29.16;36.41
57904;BME280;43720;47.462;19.030;2023-09-12T13:27:22;100074.00;;;29.22;35.94
57904;BME280;43720;47.462;19.030;2023-09-12T13:30:25;100076.16;;;29.17;36.56
57904;BME280;43720;47.462;19.030;2023-09-12T13:33:27;100070.22;;;29.12;37.74
57904;BME280;43720;47.462;19.030;2023-09-12T13:36:30;100074.44;;;29.16;38.13
57904;BME280;43720;47.462;19.030;2023-09-12T13:39:32;100066.75;;;29.10;37.69
57904;BME280;43720;47.462;19.030;2023-09-12T13:42:35;100073.12;;;29.09;37.62
57904;BME280;43720;47.462;19.030;2023-09-12T13:45:37;100065.91;;;29.10;37.64
57904;BME280;43720;47.462;19.030;2023-09-12T13:48:40;100064.59;;;29.15;37.56
57904;BME280;43720;47.462;19.030;2023-09-12T13:51:42;100070.97;;;29.14;37.40
57904;BME280;43720;47.462;19.030;2023-09-12T13:54:45;100057.41;;;29.16;36.76
57904;BME280;43720;47.462;19.030;2023-09-12T13:57:47;100053.28;;;29.10;37.06
57904;BME280;43720;47.462;19.030;2023-09-12T14:00:55;100062.12;;;29.12;38.21
57904;BME280;43720;47.462;19.030;2023-09-12T14:03:58;100060.38;;;29.11;38.15
57904;BME280;43720;47.462;19.030;2023-09-12T14:07:00;100062.00;;;29.01;37.74
57904;BME280;43720;47.462;19.030;2023-09-12T14:10:04;100057.34;;;29.03;37.61
57904;BME280;43720;47.462;19.030;2023-09-12T14:13:07;100058.44;;;29.00;37.46
57904;BME280;43720;47.462;19.030;2023-09-12T14:16:13;100054.13;;;28.98;37.41
57904;BME280;43720;47.462;19.030;2023-09-12T14:19:16;100047.88;;;28.97;37.37
57904;BME280;43720;47.462;19.030;2023-09-12T14:22:18;100066.78;;;28.96;36.92
57904;BME280;43720;47.462;19.030;2023-09-12T14:25:22;100058.94;;;28.93;37.30
57904;BME280;43720;47.462;19.030;2023-09-12T14:28:25;100061.03;;;29.02;36.82
57904;BME280;43720;47.462;19.030;2023-09-12T14:31:28;100053.06;;;29.00;37.60
57904;BME280;43720;47.462;19.030;2023-09-12T14:34:31;100052.09;;;29.02;36.12
57904;BME280;43720;47.462;19.030;2023-09-12T14:37:35;100052.38;;;28.97;36.86
57904;BME280;43720;47.462;19.030;2023-09-12T14:40:37;100049.78;;;28.95;36.76
57904;BME280;43720;47.462;19.030;2023-09-12T14:43:40;100048.53;;;29.01;36.60
57904;BME280;43720;47.462;19.030;2023-09-12T14:46:43;100049.53;;;28.86;37.16
57904;BME280;43720;47.462;19.030;2023-09-12T14:49:46;100042.84;;;28.79;37.39
57904;BME280;43720;47.462;19.030;2023-09-12T14:52:53;100050.75;;;28.67;37.90
57904;BME280;43720;47.462;19.030;2023-09-12T14:55:55;100045.56;;;28.64;38.56
57904;BME280;43720;47.462;19.030;2023-09-12T14:58:57;100051.13;;;28.61;37.34
57904;BME280;43720;47.462;19.030;2023-09-12T15:01:59;100059.62;;;28.55;37.88
57904;BME280;43720;47.462;19.030;2023-09-12T15:05:03;100050.84;;;28.39;38.18
57904;BME280;43720;47.462;19.030;2023-09-12T15:08:05;100047.34;;;28.22;38.97
57904;BME280;43720;47.462;19.030;2023-09-12T15:11:09;100054.09;;;28.15;39.34
57904;BME280;43720;47.462;19.030;2023-09-12T15:14:11;100057.47;;;28.04;40.36
57904;BME280;43720;47.462;19.030;2023-09-12T15:17:13;100049.72;;;28.00;40.41
